Garderen, Netherlands
Current Conditions -  °F | °C
As of 2:25 AM on Thursday 23 Oct 2014 (Local Time) from EHDL Reporting Station
Overcast Overcast  
Wind Chill: 46°   Ceiling: 3500
Heat Index: 46°   Visibility: 6mi
Dew Point: 45°   Wind: 3mph
Humidity: 93%   Direction: 240°WSW
Pressure: 30.18"   Gusts: NA
Location:  52.23°N, 5.71°E
Report Text: EHDL 230025Z AUTO 24003KT 9999 FEW023 OVC035 08/07 Q1022 BLU
Loading
Personal Weather Stations






























Interactive Weather Map
Tropical Storm Tracking
New forecast layout! Learn more

10-Day Weather Forecast

Advertisements
Track Severe Weather on mobile